Time;durP1;ratioP1;P1;durP2;ratioP2;P2;SDS_P1;SDS_P2;PMS_P1;PMS_P2;Temp;Humidity;BMP_temperature;BMP_pressure;BME280_temperature;BME280_humidity;BME280_pressure;Samples;Min_cycle;Max_cycle;Signal;HPM_P1;HPM_P2
2023/07/07 00:00:07;;;;;;;4.32;2.70;;;20.40;73.60;;;;;;4999801;28;20022;-71
2023/07/07 00:02:33;;;;;;;6.35;3.03;;;20.40;73.60;;;;;;4999174;28;20494;-71
2023/07/07 00:04:59;;;;;;;5.63;2.85;;;20.50;73.50;;;;;;4999436;28;20101;-71
2023/07/07 00:07:25;;;;;;;8.82;2.83;;;20.40;73.40;;;;;;4999414;28;20030;-68
2023/07/07 00:09:51;;;;;;;5.60;3.40;;;20.40;73.50;;;;;;4999141;28;20106;-68
2023/07/07 00:12:17;;;;;;;5.82;3.60;;;20.40;73.50;;;;;;4999144;28;20357;-71
2023/07/07 00:14:43;;;;;;;4.63;2.92;;;20.40;73.60;;;;;;4998820;28;20034;-71
2023/07/07 00:17:11;;;;;;;5.15;3.20;;;20.40;73.70;;;;;;4998973;28;20109;-71
2023/07/07 00:19:37;;;;;;;6.50;3.40;;;20.30;73.80;;;;;;4998988;28;20029;-71
2023/07/07 00:22:06;;;;;;;7.22;3.25;;;20.30;73.90;;;;;;4998269;28;20030;-69
2023/07/07 00:24:32;;;;;;;4.75;3.03;;;20.30;74.00;;;;;;4998744;28;20027;-71
2023/07/07 00:26:59;;;;;;;7.03;3.40;;;20.20;74.10;;;;;;4998833;28;20034;-71
2023/07/07 00:29:25;;;;;;;5.30;3.28;;;20.20;74.20;;;;;;4999065;28;20030;-69
2023/07/07 00:31:52;;;;;;;8.00;4.22;;;20.10;74.30;;;;;;4998745;28;20023;-68
2023/07/07 00:34:17;;;;;;;10.15;4.85;;;20.10;74.40;;;;;;4998472;28;20113;-70
2023/07/07 00:36:43;;;;;;;7.40;3.85;;;20.00;74.70;;;;;;4998879;28;20106;-68
2023/07/07 00:39:10;;;;;;;8.32;3.15;;;19.90;74.80;;;;;;4998889;28;20022;-68
2023/07/07 00:41:36;;;;;;;5.35;3.20;;;19.90;74.90;;;;;;4998561;28;20027;-71
2023/07/07 00:44:09;;;;;;;9.40;4.22;;;19.90;74.90;;;;;;4998436;28;20022;-71
2023/07/07 00:46:37;;;;;;;8.05;4.85;;;19.80;74.90;;;;;;4997502;28;20035;-72
2023/07/07 00:49:08;;;;;;;7.75;4.20;;;19.80;75.30;;;;;;4998407;28;20045;-72
2023/07/07 00:51:40;;;;;;;8.55;3.97;;;19.70;75.50;;;;;;4998893;28;20026;-67
2023/07/07 00:54:11;;;;;;;7.80;3.67;;;19.70;75.40;;;;;;4998231;28;20428;-69
2023/07/07 00:56:41;;;;;;;4.38;3.05;;;19.70;75.50;;;;;;4998484;28;20071;-67
2023/07/07 00:59:16;;;;;;;7.20;3.45;;;19.60;75.50;;;;;;4998735;28;20027;-68
2023/07/07 01:01:42;;;;;;;5.40;3.25;;;19.50;75.50;;;;;;4998686;28;20053;-71
2023/07/07 01:04:13;;;;;;;7.47;3.20;;;19.50;75.60;;;;;;4998098;28;20105;-68
2023/07/07 01:06:43;;;;;;;4.05;3.17;;;19.50;75.60;;;;;;4998357;28;20123;-71
2023/07/07 01:09:09;;;;;;;7.32;3.38;;;19.50;75.70;;;;;;4997998;28;20030;-68
2023/07/07 01:11:36;;;;;;;4.95;3.13;;;19.50;75.80;;;;;;4997925;28;20036;-70
2023/07/07 01:14:07;;;;;;;6.60;3.30;;;19.50;75.80;;;;;;4998316;28;21299;-71
2023/07/07 01:17:05;;;;;;;6.05;3.15;;;19.50;75.80;;;;;;4998382;28;20018;-68
2023/07/07 01:20:00;;;;;;;6.38;3.10;;;19.40;75.90;;;;;;4996057;28;20108;-68
2023/07/07 01:22:53;;;;;;;5.45;3.30;;;19.40;76.00;;;;;;4976686;28;20023;-68
2023/07/07 01:25:49;;;;;;;7.97;3.50;;;19.40;76.00;;;;;;4977121;28;20405;-71
2023/07/07 01:28:37;;;;;;;5.80;3.53;;;19.40;76.10;;;;;;4976831;28;20031;-67
2023/07/07 01:31:03;;;;;;;6.97;3.63;;;19.30;76.10;;;;;;4977172;28;20050;-70
2023/07/07 01:33:31;;;;;;;6.78;3.25;;;19.30;75.90;;;;;;4976836;28;20380;-69
2023/07/07 01:35:57;;;;;;;4.45;2.95;;;19.30;75.60;;;;;;4976046;28;20051;-68
2023/07/07 01:38:43;;;;;;;8.25;3.15;;;19.30;75.30;;;;;;4976896;28;20034;-68
2023/07/07 01:41:14;;;;;;;7.70;3.05;;;19.30;75.00;;;;;;4976913;28;20034;-70
2023/07/07 01:44:01;;;;;;;9.02;2.90;;;19.30;74.40;;;;;;4976618;28;20022;-71
2023/07/07 01:46:48;;;;;;;4.78;2.40;;;19.40;73.70;;;;;;4976671;28;20039;-68
2023/07/07 01:49:41;;;;;;;4.35;2.67;;;19.40;73.40;;;;;;4976125;28;20078;-68
2023/07/07 01:52:24;;;;;;;4.93;2.72;;;19.40;73.10;;;;;;4977256;28;20130;-70
2023/07/07 01:54:59;;;;;;;5.93;2.40;;;19.50;73.20;;;;;;4977232;28;20042;-68
2023/07/07 01:57:27;;;;;;;5.10;2.70;;;19.50;72.90;;;;;;4961906;28;20101;-69
2023/07/07 01:59:54;;;;;;;4.38;2.50;;;19.50;72.60;;;;;;4978267;28;20066;-70
2023/07/07 02:02:20;;;;;;;4.50;2.75;;;19.60;72.40;;;;;;4977639;28;20039;-71
2023/07/07 02:04:46;;;;;;;4.03;2.60;;;19.60;72.40;;;;;;4977518;28;20022;-69
2023/07/07 02:07:12;;;;;;;5.53;2.80;;;19.60;72.20;;;;;;4977793;28;20401;-71
2023/07/07 02:09:39;;;;;;;6.15;2.95;;;19.60;72.30;;;;;;4978015;28;20412;-68
2023/07/07 02:12:05;;;;;;;3.47;2.50;;;19.60;72.20;;;;;;4977932;28;20089;-69
2023/07/07 02:14:31;;;;;;;4.25;2.80;;;19.50;72.00;;;;;;4977640;28;20058;-71
2023/07/07 02:16:57;;;;;;;3.20;2.33;;;19.60;72.00;;;;;;4977174;28;20054;-69
2023/07/07 02:19:23;;;;;;;2.80;2.20;;;19.60;72.00;;;;;;4977878;28;20022;-71
2023/07/07 02:21:50;;;;;;;6.10;2.90;;;19.60;72.10;;;;;;4977326;28;20029;-69
2023/07/07 02:24:16;;;;;;;4.72;2.33;;;19.50;71.90;;;;;;4977713;28;20041;-70
2023/07/07 02:26:42;;;;;;;4.85;2.53;;;19.50;71.80;;;;;;4977242;28;20027;-67
2023/07/07 02:29:08;;;;;;;3.65;2.35;;;19.50;71.80;;;;;;4977680;28;20348;-70
2023/07/07 02:31:34;;;;;;;4.60;2.55;;;19.50;71.80;;;;;;4977115;28;20045;-68
2023/07/07 02:34:00;;;;;;;6.20;3.03;;;19.50;71.90;;;;;;4977271;28;20041;-68
2023/07/07 02:36:26;;;;;;;4.95;2.55;;;19.50;71.80;;;;;;4994824;28;20525;-71
2023/07/07 02:38:53;;;;;;;4.28;2.28;;;19.50;71.80;;;;;;4996458;28;20102;-71
2023/07/07 02:41:20;;;;;;;2.60;1.98;;;19.50;71.90;;;;;;4996647;28;20023;-71
2023/07/07 02:43:46;;;;;;;4.70;2.22;;;19.40;72.00;;;;;;4996768;28;20030;-71
2023/07/07 02:46:12;;;;;;;3.25;2.55;;;19.40;72.20;;;;;;4996560;28;20037;-71
2023/07/07 02:48:38;;;;;;;2.75;2.13;;;19.40;72.30;;;;;;4996294;28;20380;-71
2023/07/07 02:51:06;;;;;;;3.53;2.22;;;19.40;72.50;;;;;;4996217;28;20466;-68
2023/07/07 02:53:34;;;;;;;3.53;1.90;;;19.30;72.60;;;;;;4996404;28;20034;-71
2023/07/07 02:56:01;;;;;;;3.25;2.50;;;19.30;72.80;;;;;;4995053;28;20030;-71
2023/07/07 02:58:27;;;;;;;3.90;2.60;;;19.20;72.90;;;;;;4995507;28;20019;-68
2023/07/07 03:00:53;;;;;;;3.08;2.38;;;19.20;73.00;;;;;;4996118;28;20031;-68
2023/07/07 03:03:20;;;;;;;3.85;2.33;;;19.10;73.10;;;;;;4996075;28;20018;-68
2023/07/07 03:05:47;;;;;;;4.32;2.78;;;19.10;73.20;;;;;;4996439;28;20030;-71
2023/07/07 03:08:13;;;;;;;3.10;2.50;;;19.00;73.40;;;;;;4996297;28;20033;-71
2023/07/07 03:10:40;;;;;;;4.97;2.80;;;18.90;73.50;;;;;;4996191;28;20340;-69
2023/07/07 03:13:07;;;;;;;3.63;2.60;;;18.90;73.70;;;;;;4995927;28;20029;-70
2023/07/07 03:15:40;;;;;;;5.18;3.08;;;18.90;73.80;;;;;;4996298;28;20046;-69
2023/07/07 03:18:07;;;;;;;3.97;2.80;;;18.80;73.90;;;;;;4996172;28;20181;-69
2023/07/07 03:20:34;;;;;;;3.50;2.53;;;18.80;74.00;;;;;;4995835;28;20038;-71
2023/07/07 03:23:00;;;;;;;5.47;2.83;;;18.80;74.10;;;;;;4995883;28;20452;-69
2023/07/07 03:25:27;;;;;;;6.10;2.90;;;18.70;74.10;;;;;;4995793;28;20027;-71
2023/07/07 03:27:53;;;;;;;6.53;3.00;;;18.70;74.20;;;;;;5000324;28;20463;-71
2023/07/07 03:30:19;;;;;;;4.60;3.50;;;18.70;74.20;;;;;;5002851;28;20058;-70
2023/07/07 03:32:45;;;;;;;4.78;2.58;;;18.60;74.30;;;;;;5002759;28;20380;-70
2023/07/07 03:35:11;;;;;;;7.35;3.22;;;18.60;74.40;;;;;;5001197;28;20052;-68
2023/07/07 03:37:38;;;;;;;4.40;2.97;;;18.60;74.50;;;;;;5002178;28;20098;-70
2023/07/07 03:40:06;;;;;;;5.65;3.28;;;18.50;74.60;;;;;;5002441;28;20080;-68
2023/07/07 03:42:33;;;;;;;5.05;2.85;;;18.40;74.70;;;;;;5002467;28;20031;-68
2023/07/07 03:44:59;;;;;;;4.80;2.90;;;18.40;74.80;;;;;;5002107;28;20035;-68
2023/07/07 03:47:25;;;;;;;5.05;2.70;;;18.40;74.80;;;;;;5002434;28;20044;-68
2023/07/07 03:49:51;;;;;;;6.68;2.80;;;18.50;74.80;;;;;;5002612;28;20114;-71
2023/07/07 03:52:18;;;;;;;4.25;2.72;;;18.50;74.80;;;;;;5002605;28;20105;-70
2023/07/07 03:54:44;;;;;;;3.17;2.65;;;18.50;74.80;;;;;;5002236;28;20034;-71
2023/07/07 03:57:13;;;;;;;4.72;2.80;;;18.60;74.80;;;;;;5002572;28;20025;-68
2023/07/07 03:59:40;;;;;;;6.30;2.72;;;18.60;74.70;;;;;;5001988;28;20434;-70
2023/07/07 04:02:06;;;;;;;3.63;2.40;;;18.70;74.70;;;;;;5002536;28;20428;-68
2023/07/07 04:04:32;;;;;;;6.20;2.75;;;18.60;74.70;;;;;;5002260;28;20030;-68
2023/07/07 04:06:58;;;;;;;4.50;3.10;;;18.70;74.70;;;;;;5002195;28;20019;-68
2023/07/07 04:09:25;;;;;;;4.47;2.72;;;18.70;74.80;;;;;;5001930;28;20109;-68
2023/07/07 04:11:51;;;;;;;5.60;3.00;;;18.80;74.80;;;;;;5001895;28;20440;-70
2023/07/07 04:14:19;;;;;;;5.60;2.85;;;18.80;74.70;;;;;;5002026;28;20023;-72
2023/07/07 04:16:45;;;;;;;3.17;2.47;;;18.80;74.70;;;;;;5001800;28;20030;-72
2023/07/07 04:19:11;;;;;;;4.63;3.05;;;18.90;74.70;;;;;;5001906;28;20105;-72
2023/07/07 04:21:37;;;;;;;4.30;2.72;;;18.90;74.80;;;;;;5002340;28;20045;-69
2023/07/07 04:24:04;;;;;;;5.30;2.70;;;19.00;74.70;;;;;;5002217;28;20049;-70
2023/07/07 04:26:31;;;;;;;4.78;2.92;;;19.00;74.70;;;;;;5002027;28;20030;-69
2023/07/07 04:29:00;;;;;;;3.97;2.78;;;19.10;74.50;;;;;;5001793;28;20108;-69
2023/07/07 04:31:28;;;;;;;4.07;2.67;;;19.30;74.40;;;;;;5001974;28;20158;-69
2023/07/07 04:33:54;;;;;;;4.43;2.55;;;19.40;74.30;;;;;;5001930;28;20125;-70
2023/07/07 04:36:21;;;;;;;3.53;2.50;;;19.60;74.20;;;;;;5001476;28;20050;-69
2023/07/07 04:38:48;;;;;;;4.10;2.67;;;19.80;73.90;;;;;;4999773;28;20053;-69
2023/07/07 04:41:24;;;;;;;3.33;2.33;;;19.90;73.70;;;;;;4998597;28;20516;-67
2023/07/07 04:43:53;;;;;;;4.13;2.70;;;20.10;73.30;;;;;;4998757;28;20036;-67
2023/07/07 04:46:32;;;;;;;5.25;2.85;;;20.40;72.50;;;;;;4999008;28;20024;-70
2023/07/07 04:48:59;;;;;;;5.68;3.05;;;20.60;71.70;;;;;;4998765;28;20053;-67
2023/07/07 04:51:26;;;;;;;5.03;2.85;;;20.90;71.10;;;;;;4998370;28;20058;-67
2023/07/07 04:53:52;;;;;;;8.48;2.90;;;21.10;71.00;;;;;;4998815;28;20045;-68
2023/07/07 04:56:21;;;;;;;5.10;2.70;;;21.60;70.80;;;;;;4998771;28;20097;-67
2023/07/07 04:58:49;;;;;;;5.90;2.50;;;22.60;69.60;;;;;;4998309;28;20026;-67
2023/07/07 05:01:17;;;;;;;3.92;2.65;;;23.80;67.00;;;;;;4998490;28;20440;-70
2023/07/07 05:03:45;;;;;;;6.13;2.60;;;25.20;63.80;;;;;;4998164;28;20046;-68
2023/07/07 05:06:12;;;;;;;4.40;2.42;;;26.30;60.50;;;;;;4998112;28;20037;-70
2023/07/07 05:08:42;;;;;;;5.70;2.58;;;27.50;57.90;;;;;;4998647;28;20027;-71
2023/07/07 05:11:13;;;;;;;3.60;2.47;;;28.50;55.00;;;;;;4998353;28;20037;-70
2023/07/07 05:13:39;;;;;;;9.98;3.03;;;29.60;52.70;;;;;;4998025;28;20467;-71
2023/07/07 05:16:13;;;;;;;4.53;2.50;;;30.50;50.70;;;;;;4997885;28;20018;-69
2023/07/07 05:18:39;;;;;;;4.13;2.42;;;31.50;49.00;;;;;;4998205;28;20144;-71
2023/07/07 05:21:08;;;;;;;4.90;2.55;;;32.30;47.30;;;;;;4997960;28;20061;-68
2023/07/07 05:23:37;;;;;;;4.75;2.55;;;33.00;45.50;;;;;;4998116;28;20026;-71
2023/07/07 05:26:04;;;;;;;5.32;2.60;;;33.70;44.00;;;;;;4997825;28;20022;-68
2023/07/07 05:28:31;;;;;;;4.65;2.60;;;34.30;42.80;;;;;;4997773;28;20023;-68
2023/07/07 05:30:57;;;;;;;6.75;2.60;;;34.70;41.10;;;;;;4997729;28;20030;-70
2023/07/07 05:33:23;;;;;;;4.47;2.67;;;35.20;40.20;;;;;;4998189;28;20031;-69
2023/07/07 05:35:51;;;;;;;3.97;2.65;;;35.50;39.40;;;;;;4997226;28;20043;-70
2023/07/07 05:38:20;;;;;;;4.25;2.40;;;36.00;39.00;;;;;;4997854;28;20030;-70
2023/07/07 05:40:50;;;;;;;4.38;2.47;;;36.60;38.30;;;;;;4997800;28;20019;-70
2023/07/07 05:43:18;;;;;;;7.28;2.72;;;37.00;37.40;;;;;;4997407;28;20026;-69
2023/07/07 05:45:44;;;;;;;4.18;2.30;;;37.70;36.50;;;;;;4997370;28;20034;-70
2023/07/07 05:48:12;;;;;;;7.63;2.92;;;38.00;35.70;;;;;;4997274;28;20022;-68
2023/07/07 05:50:39;;;;;;;4.57;2.90;;;38.50;34.90;;;;;;4996673;28;20026;-71
2023/07/07 05:53:05;;;;;;;5.60;3.05;;;39.00;34.50;;;;;;4997495;28;20018;-71
2023/07/07 05:55:33;;;;;;;5.05;2.78;;;39.40;33.50;;;;;;4997113;28;20165;-71
2023/07/07 05:58:04;;;;;;;5.20;2.75;;;39.90;33.00;;;;;;4997140;28;20072;-71
2023/07/07 06:00:32;;;;;;;3.25;2.47;;;40.40;32.30;;;;;;4997130;28;20054;-68
2023/07/07 06:02:58;;;;;;;5.72;3.00;;;40.90;32.20;;;;;;4997327;28;20447;-71
2023/07/07 06:05:25;;;;;;;4.13;2.42;;;41.60;31.50;;;;;;4996961;28;20336;-71
2023/07/07 06:07:52;;;;;;;3.00;2.35;;;42.10;30.50;;;;;;4997025;28;20026;-71
2023/07/07 06:10:18;;;;;;;3.45;2.55;;;42.50;30.40;;;;;;4996938;28;20033;-68
2023/07/07 06:12:45;;;;;;;4.03;2.55;;;43.20;30.10;;;;;;4996906;28;20448;-69
2023/07/07 06:15:11;;;;;;;4.75;2.35;;;43.90;29.60;;;;;;4996713;28;20128;-71
2023/07/07 06:17:37;;;;;;;3.35;2.22;;;44.60;28.90;;;;;;4997085;28;20080;-67
2023/07/07 06:20:03;;;;;;;6.60;2.50;;;45.20;28.50;;;;;;4997278;28;20018;-70
2023/07/07 06:22:29;;;;;;;3.75;2.33;;;45.80;27.90;;;;;;4996974;28;20027;-71
2023/07/07 06:24:56;;;;;;;3.28;2.65;;;46.40;27.50;;;;;;4997146;28;20486;-68
2023/07/07 06:27:22;;;;;;;4.55;2.30;;;46.90;27.00;;;;;;4996638;28;20053;-67
2023/07/07 06:29:48;;;;;;;4.95;2.65;;;47.40;26.70;;;;;;4997090;28;20099;-67
2023/07/07 06:32:14;;;;;;;3.15;2.22;;;47.60;26.40;;;;;;4997044;28;20044;-68
2023/07/07 06:34:39;;;;;;;3.67;2.40;;;47.90;25.70;;;;;;4996103;28;20042;-67
2023/07/07 06:37:06;;;;;;;2.97;2.50;;;48.20;25.40;;;;;;4996442;28;20030;-71
2023/07/07 06:39:32;;;;;;;4.63;2.47;;;48.40;24.50;;;;;;4996085;28;20050;-67
2023/07/07 06:41:59;;;;;;;3.10;2.47;;;48.60;24.00;;;;;;4996851;28;20030;-71
2023/07/07 06:44:25;;;;;;;4.70;2.78;;;48.90;23.70;;;;;;4996232;28;20101;-67
2023/07/07 06:46:51;;;;;;;3.28;2.22;;;49.00;23.20;;;;;;4996768;28;20061;-67
2023/07/07 06:49:18;;;;;;;5.60;2.95;;;48.70;23.30;;;;;;4996745;28;20096;-71
2023/07/07 06:51:44;;;;;;;3.10;2.40;;;47.60;23.80;;;;;;4996430;28;20036;-72
2023/07/07 06:54:11;;;;;;;3.75;2.65;;;46.00;24.80;;;;;;4996081;28;20022;-72
2023/07/07 06:56:37;;;;;;;4.70;2.60;;;44.40;26.20;;;;;;4996240;28;20030;-68
2023/07/07 06:59:04;;;;;;;3.67;2.60;;;42.70;27.50;;;;;;4996308;28;20029;-71
2023/07/07 07:01:30;;;;;;;6.28;2.60;;;41.20;29.20;;;;;;4996113;28;20043;-71
2023/07/07 07:04:00;;;;;;;3.65;2.40;;;39.90;30.70;;;;;;4996417;28;20041;-72
2023/07/07 07:06:27;;;;;;;5.38;2.63;;;38.90;32.00;;;;;;4996293;28;20157;-68
2023/07/07 07:08:53;;;;;;;3.97;2.92;;;38.00;33.20;;;;;;4996244;28;20108;-68
2023/07/07 07:11:19;;;;;;;5.72;2.60;;;37.40;34.20;;;;;;4995915;28;20058;-72
2023/07/07 07:13:45;;;;;;;3.42;2.58;;;36.80;35.10;;;;;;4996377;28;20041;-68
2023/07/07 07:16:11;;;;;;;5.07;2.58;;;36.40;35.80;;;;;;4996246;28;20038;-72
2023/07/07 07:18:37;;;;;;;5.00;2.83;;;35.90;36.40;;;;;;4996100;28;20035;-68
2023/07/07 07:21:03;;;;;;;3.95;2.80;;;35.60;36.60;;;;;;4996299;28;20030;-71
2023/07/07 07:23:29;;;;;;;4.95;2.72;;;35.40;37.20;;;;;;4995982;28;20027;-72
2023/07/07 07:25:55;;;;;;;5.80;2.92;;;35.20;37.70;;;;;;4994695;28;20034;-68
2023/07/07 07:28:21;;;;;;;3.88;2.70;;;35.00;38.10;;;;;;4995694;28;20105;-69
2023/07/07 07:30:48;;;;;;;4.65;2.70;;;34.90;38.20;;;;;;4995720;28;20109;-68
2023/07/07 07:33:21;;;;;;;5.50;2.53;;;34.60;38.50;;;;;;4995648;28;20027;-71
2023/07/07 07:35:47;;;;;;;4.15;2.70;;;34.40;38.80;;;;;;4995251;28;20065;-71
2023/07/07 07:38:18;;;;;;;4.15;2.63;;;34.20;39.00;;;;;;4994649;28;20018;-68
2023/07/07 07:40:44;;;;;;;5.40;2.78;;;34.00;39.30;;;;;;4995840;28;20030;-71
2023/07/07 07:43:10;;;;;;;4.85;2.42;;;34.00;39.40;;;;;;4995596;28;20019;-68
2023/07/07 07:45:36;;;;;;;3.95;2.67;;;33.90;38.80;;;;;;4995734;28;20035;-72
2023/07/07 07:48:03;;;;;;;4.55;3.00;;;33.90;38.80;;;;;;4995556;28;20069;-72
2023/07/07 07:50:31;;;;;;;4.50;2.85;;;33.80;38.90;;;;;;4995792;28;20092;-68
2023/07/07 07:52:57;;;;;;;4.80;2.65;;;33.70;39.30;;;;;;4995770;28;20030;-68
2023/07/07 07:55:23;;;;;;;4.57;2.60;;;33.60;38.80;;;;;;4995344;28;20030;-68
2023/07/07 07:57:49;;;;;;;4.13;2.90;;;33.40;39.10;;;;;;4995633;28;20014;-71
2023/07/07 08:00:16;;;;;;;4.53;2.80;;;33.30;38.20;;;;;;4995409;28;20037;-70
2023/07/07 08:02:41;;;;;;;4.28;2.90;;;33.00;38.00;;;;;;4995394;28;20026;-72
2023/07/07 08:05:08;;;;;;;3.70;2.67;;;32.80;38.10;;;;;;4995274;28;20109;-71
2023/07/07 08:07:34;;;;;;;4.72;2.78;;;32.60;38.60;;;;;;4995369;28;20037;-68
2023/07/07 08:10:00;;;;;;;4.65;2.88;;;32.50;39.10;;;;;;4995384;28;20026;-68
2023/07/07 08:12:26;;;;;;;3.80;2.80;;;32.40;39.60;;;;;;4994600;28;20038;-68
2023/07/07 08:14:52;;;;;;;3.72;2.85;;;32.40;39.90;;;;;;4997524;28;20072;-71
2023/07/07 08:17:21;;;;;;;4.78;2.72;;;32.50;40.20;;;;;;4999033;28;20034;-69
2023/07/07 08:19:46;;;;;;;3.65;2.60;;;32.60;40.30;;;;;;4998898;28;20026;-71
2023/07/07 08:22:18;;;;;;;3.75;2.50;;;32.70;40.20;;;;;;4999169;28;20081;-71
2023/07/07 08:24:52;;;;;;;4.15;2.70;;;32.80;40.10;;;;;;4999303;28;20040;-68
2023/07/07 08:27:19;;;;;;;5.90;3.05;;;32.80;39.30;;;;;;4999339;28;20035;-68
2023/07/07 08:29:45;;;;;;;5.45;2.70;;;32.60;39.30;;;;;;4998782;28;20030;-68
2023/07/07 08:32:14;;;;;;;3.90;2.88;;;32.40;39.20;;;;;;4999199;28;20321;-70
2023/07/07 08:34:40;;;;;;;4.32;2.85;;;32.30;39.40;;;;;;4998784;28;20026;-71
2023/07/07 08:37:06;;;;;;;5.00;2.70;;;32.10;39.30;;;;;;4999154;28;20029;-72
2023/07/07 08:39:33;;;;;;;5.32;3.20;;;31.90;39.90;;;;;;4998570;28;20037;-68
2023/07/07 08:42:47;;;;;;;6.95;3.47;;;31.90;40.50;;;;;;4998552;28;20018;-72
2023/07/07 08:45:20;;;;;;;4.78;3.00;;;31.70;39.90;;;;;;4977221;28;20468;-71
2023/07/07 08:48:11;;;;;;;5.85;3.25;;;31.60;40.50;;;;;;4977847;28;20138;-71
2023/07/07 08:50:49;;;;;;;3.80;2.90;;;31.60;40.80;;;;;;4977515;28;20038;-68
2023/07/07 08:53:59;;;;;;;4.07;2.88;;;31.60;40.90;;;;;;4977149;28;20089;-71
2023/07/07 08:56:34;;;;;;;4.25;2.92;;;31.50;41.00;;;;;;4977664;28;20399;-69
2023/07/07 08:59:01;;;;;;;3.63;2.90;;;31.50;41.40;;;;;;4977110;28;20404;-68
2023/07/07 09:01:42;;;;;;;5.53;3.10;;;31.40;41.70;;;;;;4977533;28;20046;-69
2023/07/07 09:04:07;;;;;;;6.95;3.50;;;31.50;41.10;;;;;;4977472;28;20030;-71
2023/07/07 09:06:39;;;;;;;6.00;3.13;;;31.50;41.80;;;;;;4977005;28;20034;-68
2023/07/07 09:09:43;;;;;;;4.45;3.03;;;31.50;41.60;;;;;;4977194;28;20053;-68
2023/07/07 09:12:27;;;;;;;4.43;2.97;;;31.40;41.60;;;;;;4976924;28;20089;-71
2023/07/07 09:14:57;;;;;;;5.05;3.10;;;31.30;41.10;;;;;;4976668;28;20042;-68
2023/07/07 09:17:29;;;;;;;5.00;3.28;;;31.10;41.00;;;;;;4977073;28;20027;-68
2023/07/07 09:19:57;;;;;;;5.18;3.13;;;31.10;41.30;;;;;;4977289;28;20491;-68
2023/07/07 09:22:26;;;;;;;6.50;3.33;;;31.10;41.40;;;;;;4994763;28;20101;-71
2023/07/07 09:25:02;;;;;;;5.72;3.28;;;31.00;41.50;;;;;;4997386;28;20027;-68
2023/07/07 09:27:43;;;;;;;5.00;3.00;;;30.90;41.10;;;;;;4998270;28;20113;-68
2023/07/07 09:30:21;;;;;;;6.32;3.00;;;30.90;41.20;;;;;;4997930;28;20015;-71
2023/07/07 09:32:48;;;;;;;4.85;3.08;;;30.80;41.50;;;;;;4998175;28;20077;-68
2023/07/07 09:35:14;;;;;;;6.57;3.55;;;30.80;41.60;;;;;;4997191;28;20048;-71
2023/07/07 09:38:13;;;;;;;4.82;3.40;;;30.70;41.80;;;;;;4997505;28;20076;-68
2023/07/07 09:41:03;;;;;;;5.63;3.30;;;30.70;42.10;;;;;;4997536;28;20029;-72
2023/07/07 09:43:37;;;;;;;6.72;3.35;;;30.70;42.10;;;;;;4997353;28;20033;-71
2023/07/07 09:46:03;;;;;;;4.60;3.00;;;30.60;42.10;;;;;;4997905;28;20101;-68
2023/07/07 09:48:44;;;;;;;5.18;3.33;;;30.50;42.50;;;;;;4997357;28;20110;-69
2023/07/07 09:51:36;;;;;;;6.18;3.53;;;30.50;42.60;;;;;;4997518;28;20101;-69
2023/07/07 09:54:02;;;;;;;4.35;2.95;;;30.40;43.00;;;;;;4997641;28;20093;-72
2023/07/07 09:56:52;;;;;;;4.60;3.20;;;30.40;42.90;;;;;;4997583;28;20348;-68
2023/07/07 09:59:33;;;;;;;5.07;3.40;;;30.40;43.10;;;;;;4997081;28;20026;-72
2023/07/07 10:02:00;;;;;;;5.90;3.65;;;30.40;43.20;;;;;;4997327;28;20401;-72
2023/07/07 10:04:29;;;;;;;4.25;2.85;;;30.40;43.00;;;;;;4996915;28;20052;-68
2023/07/07 10:07:07;;;;;;;6.35;3.17;;;30.40;43.40;;;;;;4997214;28;20049;-69
2023/07/07 10:09:34;;;;;;;6.95;3.28;;;30.40;43.20;;;;;;4997450;28;20036;-72
2023/07/07 10:12:00;;;;;;;5.40;3.47;;;30.50;43.00;;;;;;4995847;28;20049;-69
2023/07/07 10:14:29;;;;;;;5.10;3.15;;;30.40;42.70;;;;;;4996983;28;20061;-69
2023/07/07 10:17:10;;;;;;;6.75;3.53;;;30.30;42.90;;;;;;4997160;28;20038;-69
2023/07/07 10:19:43;;;;;;;4.35;3.20;;;30.20;42.70;;;;;;4996994;28;20064;-72
2023/07/07 10:22:14;;;;;;;6.40;3.20;;;30.20;43.20;;;;;;4996965;28;20051;-69
2023/07/07 10:24:41;;;;;;;4.65;3.03;;;30.20;43.30;;;;;;4997131;28;20033;-72
2023/07/07 10:27:17;;;;;;;5.60;3.22;;;30.20;43.60;;;;;;4996614;28;20102;-72
2023/07/07 10:29:44;;;;;;;6.88;3.00;;;30.40;43.40;;;;;;4996842;28;20030;-68
2023/07/07 10:32:17;;;;;;;5.10;3.40;;;30.40;43.40;;;;;;4997069;28;20076;-68
2023/07/07 10:34:48;;;;;;;4.55;3.15;;;30.40;43.40;;;;;;4996364;28;20075;-71
2023/07/07 10:37:20;;;;;;;5.05;3.00;;;30.40;43.80;;;;;;4996061;28;20026;-71
2023/07/07 10:39:57;;;;;;;6.18;3.30;;;30.40;44.10;;;;;;4996302;28;20141;-71
2023/07/07 10:42:24;;;;;;;6.15;3.75;;;30.30;44.50;;;;;;4996609;28;20018;-71
2023/07/07 10:44:58;;;;;;;5.28;3.28;;;30.20;44.70;;;;;;4996370;28;20067;-68
2023/07/07 10:47:36;;;;;;;5.75;3.33;;;30.20;44.70;;;;;;4996260;28;20034;-68
2023/07/07 10:50:06;;;;;;;6.60;3.60;;;30.20;44.60;;;;;;4996468;28;20025;-72
2023/07/07 10:52:51;;;;;;;5.10;3.08;;;30.10;45.00;;;;;;4996782;28;20026;-68
2023/07/07 10:55:44;;;;;;;6.00;3.45;;;30.00;45.40;;;;;;4996009;28;20038;-72
2023/07/07 10:58:29;;;;;;;;;;;30.10;45.20;;;;;;4996755;28;20097;-72
2023/07/07 11:01:15;;;;;;;6.00;3.40;;;30.00;44.90;;;;;;4996059;28;19945;-69
2023/07/07 11:03:59;;;;;;;6.90;3.47;;;30.00;44.50;;;;;;4996593;28;20463;-72
2023/07/07 11:06:34;;;;;;;;;;;30.00;44.50;;;;;;4995854;28;20026;-72
2023/07/07 11:09:33;;;;;;;5.90;3.42;;;30.00;44.50;;;;;;4995990;28;19905;-68
2023/07/07 11:12:27;;;;;;;5.22;3.10;;;29.90;44.70;;;;;;4995051;28;20038;-68
2023/07/07 11:15:11;;;;;;;7.18;3.10;;;29.90;45.40;;;;;;4994797;28;20367;-71
2023/07/07 11:17:45;;;;;;;5.63;3.53;;;29.90;45.20;;;;;;4996416;28;20050;-69
2023/07/07 11:20:28;;;;;;;6.75;3.50;;;29.90;43.60;;;;;;4996381;28;20041;-69
2023/07/07 11:23:16;;;;;;;6.28;2.90;;;29.90;44.20;;;;;;4996140;28;20022;-72
2023/07/07 11:26:01;;;;;;;6.72;3.30;;;29.90;44.20;;;;;;4995719;28;20047;-72
2023/07/07 11:28:54;;;;;;;5.57;3.20;;;29.90;44.40;;;;;;4996261;28;20058;-72
2023/07/07 11:31:22;;;;;;;6.00;3.63;;;29.90;44.50;;;;;;4995701;28;20034;-69
2023/07/07 11:33:49;;;;;;;5.65;3.50;;;29.90;44.60;;;;;;4995805;28;20026;-68
2023/07/07 11:36:42;;;;;;;4.90;3.05;;;30.00;44.00;;;;;;4995492;28;20069;-71
2023/07/07 11:39:32;;;;;;;6.28;3.25;;;29.90;43.60;;;;;;4996232;28;20447;-69
2023/07/07 11:42:21;;;;;;;4.97;3.28;;;29.80;43.50;;;;;;4995933;28;20023;-69
2023/07/07 11:45:04;;;;;;;5.20;3.17;;;29.80;43.60;;;;;;4995561;28;20352;-71
2023/07/07 11:47:48;;;;;;;5.45;3.42;;;29.90;43.70;;;;;;4996140;28;20081;-71
2023/07/07 11:50:14;;;;;;;5.15;3.47;;;29.90;44.10;;;;;;4998573;28;20026;-71
2023/07/07 11:52:51;;;;;;;4.65;3.20;;;29.90;43.30;;;;;;5000054;28;20023;-68
2023/07/07 11:55:30;;;;;;;5.55;3.33;;;29.80;43.50;;;;;;4998401;28;20027;-72
2023/07/07 11:58:22;;;;;;;6.20;3.40;;;29.80;44.10;;;;;;4999394;28;20027;-69
2023/07/07 12:01:00;;;;;;;4.65;3.20;;;29.70;44.00;;;;;;4999891;28;20328;-71
2023/07/07 12:03:43;;;;;;;4.50;3.13;;;29.70;43.70;;;;;;4999591;28;20085;-70
2023/07/07 12:06:24;;;;;;;5.87;3.20;;;29.80;43.40;;;;;;4999192;28;20022;-70
2023/07/07 12:08:56;;;;;;;5.47;3.50;;;29.70;43.40;;;;;;4999737;28;20025;-70
2023/07/07 12:11:25;;;;;;;5.53;3.28;;;29.80;43.70;;;;;;4999079;28;20034;-71
2023/07/07 12:14:03;;;;;;;5.55;3.50;;;30.00;43.70;;;;;;4999508;28;20152;-70
2023/07/07 12:16:30;;;;;;;5.90;3.17;;;30.10;43.40;;;;;;4999265;28;20026;-71
2023/07/07 12:21:49;;;;;;;5.57;3.30;;;30.10;43.20;;;;;;4999299;28;20034;-70
2023/07/07 12:24:28;;;;;;;5.60;3.60;;;30.10;43.40;;;;;;4999135;28;20036;-71
2023/07/07 12:27:08;;;;;;;4.78;3.30;;;30.20;43.30;;;;;;4999251;28;20038;-70
2023/07/07 12:29:42;;;;;;;5.13;3.20;;;30.20;43.50;;;;;;4999643;28;20352;-71
2023/07/07 12:32:08;;;;;;;5.90;3.22;;;30.20;43.70;;;;;;4999045;28;20030;-68
2023/07/07 12:34:42;;;;;;;4.80;3.35;;;30.30;43.90;;;;;;4998745;28;20026;-71
2023/07/07 12:37:20;;;;;;;5.25;3.42;;;30.40;43.90;;;;;;4998831;28;20105;-68
2023/07/07 12:40:15;;;;;;;4.95;3.30;;;30.40;43.60;;;;;;4998599;28;20424;-71
2023/07/07 12:42:43;;;;;;;6.13;3.33;;;30.40;43.80;;;;;;4996955;28;20398;-68
2023/07/07 12:45:25;;;;;;;4.75;3.38;;;30.40;43.70;;;;;;4998448;28;20034;-71
2023/07/07 12:47:59;;;;;;;7.15;4.03;;;30.40;43.30;;;;;;4998532;28;20168;-71
2023/07/07 12:50:27;;;;;;;5.22;3.60;;;30.30;43.20;;;;;;4998796;28;20030;-71
2023/07/07 12:52:57;;;;;;;5.90;3.30;;;30.20;42.90;;;;;;4998353;28;20026;-68
2023/07/07 12:55:28;;;;;;;5.85;3.30;;;30.20;43.00;;;;;;4998709;28;20041;-71
2023/07/07 12:57:58;;;;;;;4.30;3.00;;;30.20;43.20;;;;;;4998880;28;20057;-71
2023/07/07 13:00:31;;;;;;;4.47;2.95;;;30.30;43.20;;;;;;4997798;28;20340;-68
2023/07/07 13:03:09;;;;;;;5.75;3.42;;;30.40;43.10;;;;;;4998433;28;20360;-69
2023/07/07 13:05:43;;;;;;;4.97;3.25;;;30.40;43.00;;;;;;4998346;28;20030;-68
2023/07/07 13:08:09;;;;;;;5.75;3.42;;;30.50;42.90;;;;;;4997766;28;20038;-71
2023/07/07 13:10:41;;;;;;;4.55;3.13;;;30.50;42.70;;;;;;4998569;28;20030;-70